This is the latest recevied weather packets stored in our database for station/object OH7GGX-14. If no packets are shown the sender has not sent any weather packets the latest 10 day(s).
| Time | Temp. | Humidity | Pressure | Rain* | Wind** | Luminosity | Snow |
|---|---|---|---|---|---|---|---|
| 1777834897 | 4.44° C | 74% | 1008.8 hPa | 0 mm | - | - | - |
| 1777833097 | 6.67° C | 67% | 1008.6 hPa | 0 mm | - | - | - |
| 1777831897 | 8.33° C | 62% | 1008.5 hPa | 0 mm | - | - | - |
| 1777827097 | 11.67° C | 56% | 1007.8 hPa | 0 mm | - | - | - |
| 1777825298 | 12.22° C | 55% | 1007.7 hPa | 0 mm | - | - | - |
| 1777824698 | 12.22° C | 55% | 1007.6 hPa | 0 mm | - | - | - |
| 1777824098 | 12.22° C | 55% | 1007.5 hPa | 0 mm | - | - | - |
| 1777823498 | 12.22° C | 54% | 1007.6 hPa | 0 mm | - | - | - |
| 1777822898 | 12.22° C | 53% | 1007.5 hPa | 0 mm | - | - | - |
| 1777822298 | 12.22° C | 54% | 1007.5 hPa | 0 mm | - | - | - |
| 1777821698 | 12.78° C | 53% | 1007.5 hPa | 0 mm | - | - | - |
| 1777821098 | 12.78° C | 53% | 1007.4 hPa | 0 mm | - | - | - |
| 1777820498 | 12.78° C | 55% | 1007.4 hPa | 0 mm | - | - | - |
| 1777819898 | 12.78° C | 54% | 1007.3 hPa | 0 mm | - | - | - |
| 1777819298 | 12.78° C | 53% | 1007.2 hPa | 0 mm | - | - | - |
| 1777818698 | 12.78° C | 56% | 1007.2 hPa | 0 mm | - | - | - |
| 1777818098 | 12.78° C | 56% | 1007.2 hPa | 0 mm | - | - | - |
| 1777817498 | 12.78° C | 56% | 1007.2 hPa | 0 mm | - | - | - |
| 1777816898 | 12.78° C | 55% | 1007.2 hPa | 0 mm | - | - | - |
| 1777816298 | 12.78° C | 55% | 1007.1 hPa | 0 mm | - | - | - |
| 1777815098 | 12.78° C | 59% | 1007.1 hPa | 0 mm | - | - | - |
| 1777814498 | 12.78° C | 60% | 1007 hPa | 0 mm | - | - | - |
| 1777813898 | 12.78° C | 60% | 1007.1 hPa | 0 mm | - | - | - |
| 1777813298 | 12.78° C | 60% | 1006.9 hPa | 0 mm | - | - | - |
| 1777812698 | 12.78° C | 60% | 1006.8 hPa | 0 mm | - | - | - |
* Rain latest hour (hover to see other rain measurements)
** Current wind speed in m/s (hover to see current wind gust speed)